Time;durP1;ratioP1;P1;durP2;ratioP2;P2;SDS_P1;SDS_P2;PMS_P1;PMS_P2;Temp;Humidity;BMP_temperature;BMP_pressure;BME280_temperature;BME280_humidity;BME280_pressure;Samples;Min_cycle;Max_cycle;Signal;HPM_P1;HPM_P2
2020/12/27 00:00:26;;;;;;;26.23;11.60;;;-0.70;99.90;;;;;;4139772;28;20272;-49
2020/12/27 00:02:27;;;;;;;24.67;10.43;;;-0.80;99.90;;;;;;4140490;28;20302;-46
2020/12/27 00:04:28;;;;;;;24.60;11.37;;;-0.80;99.90;;;;;;4140487;28;20679;-55
2020/12/27 00:06:31;;;;;;;27.63;12.43;;;-0.80;99.90;;;;;;4139886;28;20275;-49
2020/12/27 00:08:32;;;;;;;24.40;11.50;;;-0.80;99.90;;;;;;4144468;28;20309;-49
2020/12/27 00:10:33;;;;;;;28.63;12.17;;;-0.90;99.90;;;;;;4143090;28;20759;-51
2020/12/27 00:12:34;;;;;;;28.53;12.27;;;-0.90;99.90;;;;;;4144519;28;20275;-49
2020/12/27 00:14:36;;;;;;;29.40;14.37;;;-0.90;99.90;;;;;;4142815;28;20271;-49
2020/12/27 00:16:37;;;;;;;30.10;14.27;;;-0.90;99.90;;;;;;4144420;28;20692;-52
2020/12/27 00:18:38;;;;;;;29.23;13.37;;;-1.00;99.90;;;;;;4142666;28;20298;-46
2020/12/27 00:20:39;;;;;;;32.93;13.87;;;-1.00;99.90;;;;;;4143995;28;20271;-48
2020/12/27 00:22:40;;;;;;;34.97;15.57;;;-1.00;99.90;;;;;;4142327;28;20325;-44
2020/12/27 00:24:41;;;;;;;29.83;14.67;;;-1.00;99.90;;;;;;4143947;28;20276;-48
2020/12/27 00:26:43;;;;;;;33.17;14.90;;;-1.10;99.90;;;;;;4142368;28;20329;-49
2020/12/27 00:28:44;;;;;;;35.03;16.93;;;-1.10;99.90;;;;;;4143640;28;20271;-48
2020/12/27 00:30:45;;;;;;;33.10;15.70;;;-1.10;99.90;;;;;;4143159;28;20621;-41
2020/12/27 00:32:47;;;;;;;30.73;15.07;;;-1.10;99.90;;;;;;4142826;28;20345;-42
2020/12/27 00:34:48;;;;;;;33.23;14.47;;;-1.10;99.90;;;;;;4143768;28;21158;-46
2020/12/27 00:36:50;;;;;;;31.27;14.67;;;-1.10;99.90;;;;;;4142437;28;20794;-43
2020/12/27 00:38:51;;;;;;;31.83;15.30;;;-1.10;99.90;;;;;;4143976;28;20350;-44
2020/12/27 00:40:52;;;;;;;33.40;14.23;;;-1.10;99.90;;;;;;4143054;28;20748;-45
2020/12/27 00:42:53;;;;;;;35.33;16.43;;;-1.20;99.90;;;;;;4144692;28;20275;-51
2020/12/27 00:44:56;;;;;;;32.60;16.90;;;-1.20;99.90;;;;;;4142761;28;20593;-52
2020/12/27 00:46:57;;;;;;;41.13;20.00;;;-1.20;99.90;;;;;;4143471;28;20268;-42
2020/12/27 00:48:58;;;;;;;33.87;15.80;;;-1.20;99.90;;;;;;4142380;28;20283;-52
2020/12/27 00:50:59;;;;;;;26.77;13.43;;;-1.30;99.90;;;;;;4144105;28;20276;-50
2020/12/27 00:53:00;;;;;;;27.97;13.67;;;-1.30;99.90;;;;;;4141845;28;20755;-55
2020/12/27 00:55:01;;;;;;;29.73;14.73;;;-1.30;99.90;;;;;;4143472;28;20306;-54
2020/12/27 00:57:03;;;;;;;30.70;14.27;;;-1.30;99.90;;;;;;4141990;28;20806;-52
2020/12/27 00:59:04;;;;;;;32.50;17.30;;;-1.30;99.90;;;;;;4143505;28;20295;-46
2020/12/27 01:01:06;;;;;;;35.13;15.20;;;-1.30;99.90;;;;;;4142722;28;20743;-46
2020/12/27 01:03:07;;;;;;;33.50;16.43;;;-1.40;99.90;;;;;;4143148;28;20291;-49
2020/12/27 01:05:09;;;;;;;34.40;17.07;;;-1.30;99.90;;;;;;4142934;28;20271;-54
2020/12/27 01:07:10;;;;;;;31.67;14.27;;;-1.40;99.90;;;;;;4142628;28;20279;-46
2020/12/27 01:09:11;;;;;;;27.10;14.30;;;-1.40;99.90;;;;;;4143462;28;20272;-54
2020/12/27 01:11:12;;;;;;;25.63;13.27;;;-1.40;99.90;;;;;;4141756;28;20373;-49
2020/12/27 01:13:13;;;;;;;33.57;14.40;;;-1.40;99.90;;;;;;4143140;28;20333;-46
2020/12/27 01:15:15;;;;;;;34.30;15.53;;;-1.40;99.90;;;;;;4142655;28;20310;-51
2020/12/27 01:17:17;;;;;;;36.37;15.93;;;-1.50;99.90;;;;;;4142944;28;20263;-44
2020/12/27 01:19:18;;;;;;;35.47;15.90;;;-1.50;99.90;;;;;;4140927;28;20359;-51
2020/12/27 01:21:27;;;;;;;32.87;15.17;;;-1.50;99.90;;;;;;4142766;28;20322;-50
2020/12/27 01:23:28;;;;;;;31.43;14.47;;;-1.50;99.90;;;;;;4142052;28;20280;-42
2020/12/27 01:25:29;;;;;;;31.30;13.57;;;-1.50;99.90;;;;;;4142729;28;20334;-48
2020/12/27 01:27:30;;;;;;;31.80;14.83;;;-1.50;99.90;;;;;;4140955;28;20287;-52
2020/12/27 01:29:31;;;;;;;28.73;12.43;;;-1.50;99.90;;;;;;4143295;28;20279;-43
2020/12/27 01:31:32;;;;;;;32.70;13.20;;;-1.50;99.90;;;;;;4141312;28;20372;-42
2020/12/27 01:33:33;;;;;;;31.40;13.93;;;-1.50;99.90;;;;;;4142825;28;20271;-47
2020/12/27 01:35:35;;;;;;;35.93;15.00;;;-1.50;99.90;;;;;;4142107;28;20322;-52
2020/12/27 01:37:36;;;;;;;30.97;14.17;;;-1.60;99.90;;;;;;4142143;28;20272;-51
2020/12/27 01:39:37;;;;;;;39.83;16.50;;;-1.70;99.90;;;;;;4142341;28;20353;-46
2020/12/27 01:41:38;;;;;;;36.17;15.27;;;-1.70;99.90;;;;;;4142994;28;20271;-49
2020/12/27 01:43:39;;;;;;;33.47;14.40;;;-1.80;99.90;;;;;;4143063;28;20673;-46
2020/12/27 01:45:40;;;;;;;29.87;13.43;;;-1.80;99.90;;;;;;4140955;28;20334;-49
2020/12/27 01:47:41;;;;;;;34.67;14.77;;;-1.90;99.90;;;;;;4142114;28;20755;-48
2020/12/27 01:49:44;;;;;;;35.13;15.40;;;-2.00;99.90;;;;;;4141658;28;20597;-53
2020/12/27 01:51:45;;;;;;;32.60;15.10;;;-2.00;99.90;;;;;;4142488;28;20306;-53
2020/12/27 01:53:46;;;;;;;31.27;12.67;;;-2.00;99.90;;;;;;4141723;28;20279;-52
2020/12/27 01:55:47;;;;;;;30.87;12.23;;;-2.00;99.90;;;;;;4142796;28;20271;-47
2020/12/27 01:58:20;;;;;;;31.30;12.43;;;-2.10;99.90;;;;;;4141198;28;20395;-45
2020/12/27 02:00:21;;;;;;;29.50;13.67;;;-2.10;99.90;;;;;;4143464;28;20283;-54
2020/12/27 02:02:22;;;;;;;31.63;14.07;;;-2.10;99.90;;;;;;4140996;28;20341;-49
2020/12/27 02:04:24;;;;;;;30.17;12.80;;;-2.10;99.90;;;;;;4143035;28;20744;-50
2020/12/27 02:06:26;;;;;;;33.97;14.00;;;-2.10;99.90;;;;;;4141564;28;20279;-50
2020/12/27 02:08:27;;;;;;;30.20;12.43;;;-2.10;99.90;;;;;;4142092;28;20683;-54
2020/12/27 02:10:30;;;;;;;30.63;12.70;;;-2.10;99.90;;;;;;4141716;28;20251;-50
2020/12/27 02:12:31;;;;;;;35.03;13.50;;;-2.00;99.90;;;;;;4141925;28;20778;-55
2020/12/27 02:14:32;;;;;;;25.73;12.43;;;-2.00;99.90;;;;;;4141325;28;20275;-49
2020/12/27 02:16:34;;;;;;;31.73;12.83;;;-2.00;99.90;;;;;;4141780;28;20283;-48
2020/12/27 02:18:36;;;;;;;28.67;12.70;;;-2.00;99.90;;;;;;4141625;28;20333;-48
2020/12/27 02:20:37;;;;;;;29.60;12.50;;;-1.90;99.90;;;;;;4141398;28;20275;-47
2020/12/27 02:22:40;;;;;;;27.73;13.40;;;-1.90;99.90;;;;;;4142205;28;20275;-48
2020/12/27 02:24:41;;;;;;;32.77;13.30;;;-1.90;99.90;;;;;;4123877;28;20842;-50
2020/12/27 02:27:02;;;;;;;31.50;13.47;;;-1.90;99.90;;;;;;4141981;28;20287;-41
2020/12/27 02:29:03;;;;;;;;;;;-1.80;99.90;;;;;;4141126;28;20330;-54
2020/12/27 02:31:04;;;;;;;;;;;-1.80;99.90;;;;;;4142766;28;19914;-50
2020/12/27 02:33:05;;;;;;;;;;;-1.80;99.90;;;;;;4141869;28;20014;-54
2020/12/27 02:35:06;;;;;;;;;;;-1.80;99.90;;;;;;4143181;28;19912;-50
2020/12/27 02:37:07;;;;;;;28.55;10.77;;;-1.80;99.90;;;;;;4141227;28;19909;-44
2020/12/27 02:39:14;;;;;;;29.33;12.83;;;-1.80;99.90;;;;;;4141652;28;20095;-52
2020/12/27 02:41:20;;;;;;;33.83;13.80;;;-1.80;99.90;;;;;;4140307;28;20275;-52
2020/12/27 02:43:21;;;;;;;33.43;13.33;;;-1.80;99.90;;;;;;4141968;28;20263;-44
2020/12/27 02:45:22;;;;;;;31.27;15.07;;;-1.80;99.90;;;;;;4140227;28;20267;-55
2020/12/27 02:47:23;;;;;;;31.93;13.40;;;-1.80;99.90;;;;;;4142072;28;20267;-51
2020/12/27 02:49:24;;;;;;;34.50;14.00;;;-1.80;99.90;;;;;;4140871;28;20325;-51
2020/12/27 02:51:26;;;;;;;28.13;12.97;;;-1.70;99.90;;;;;;4141406;28;20337;-54
2020/12/27 02:53:27;;;;;;;26.10;12.47;;;-1.80;99.90;;;;;;4140657;28;20271;-48
2020/12/27 02:55:29;;;;;;;26.37;12.60;;;-1.70;99.90;;;;;;4141248;28;20325;-47
2020/12/27 02:57:30;;;;;;;29.87;14.00;;;-1.70;99.90;;;;;;4141477;28;20757;-44
2020/12/27 02:59:31;;;;;;;28.57;12.33;;;-1.70;99.90;;;;;;4140805;28;20349;-42
2020/12/27 03:01:32;;;;;;;32.17;14.83;;;-1.70;99.90;;;;;;4141671;28;20329;-50
2020/12/27 03:03:33;;;;;;;30.67;13.70;;;-1.70;99.90;;;;;;4139972;28;20279;-47
2020/12/27 03:05:34;;;;;;;29.67;13.40;;;-1.70;99.90;;;;;;4141531;28;20318;-42
2020/12/27 03:07:35;;;;;;;32.10;15.23;;;-1.60;99.90;;;;;;4139901;28;21295;-50
2020/12/27 03:09:36;;;;;;;30.73;12.90;;;-1.50;99.90;;;;;;4140917;28;20382;-43
2020/12/27 03:11:37;;;;;;;32.60;15.40;;;-1.50;99.90;;;;;;4140158;28;20287;-44
2020/12/27 03:13:38;;;;;;;34.03;14.43;;;-1.40;99.90;;;;;;4140799;28;20271;-43
2020/12/27 03:15:40;;;;;;;29.73;13.17;;;-1.30;99.90;;;;;;4140285;28;20287;-45
2020/12/27 03:17:41;;;;;;;27.97;13.10;;;-1.30;99.90;;;;;;4142011;28;20275;-50
2020/12/27 03:19:42;;;;;;;28.43;12.80;;;-1.30;99.90;;;;;;4140504;28;20291;-43
2020/12/27 03:21:43;;;;;;;34.27;13.97;;;-1.30;99.90;;;;;;4140571;28;20345;-42
2020/12/27 03:23:44;;;;;;;29.77;12.37;;;-1.30;99.90;;;;;;4140376;28;20259;-42
2020/12/27 03:25:46;;;;;;;33.90;15.07;;;-1.40;99.90;;;;;;4140704;28;20326;-46
2020/12/27 03:27:48;;;;;;;33.40;13.00;;;-1.40;99.90;;;;;;4140512;28;20345;-47
2020/12/27 03:29:49;;;;;;;34.90;14.13;;;-1.50;99.90;;;;;;4140080;28;20271;-54
2020/12/27 03:31:50;;;;;;;30.97;14.87;;;-1.40;99.90;;;;;;4140251;28;20675;-47
2020/12/27 03:33:51;;;;;;;31.27;14.27;;;-1.50;99.90;;;;;;4140442;28;20259;-54
2020/12/27 03:35:52;;;;;;;35.13;15.23;;;-1.50;99.90;;;;;;4141724;28;21231;-45
2020/12/27 03:37:53;;;;;;;31.47;14.33;;;-1.50;99.90;;;;;;4140264;28;20322;-46
2020/12/27 03:39:54;;;;;;;34.67;14.83;;;-1.50;99.90;;;;;;4140887;28;20853;-43
2020/12/27 03:41:56;;;;;;;38.07;16.80;;;-1.50;99.90;;;;;;4139296;28;20326;-41
2020/12/27 03:43:57;;;;;;;30.97;13.80;;;-1.60;99.90;;;;;;4140935;28;20325;-41
2020/12/27 03:45:58;;;;;;;34.37;14.63;;;-1.60;99.90;;;;;;4139626;28;20675;-46
2020/12/27 03:47:59;;;;;;;29.30;13.20;;;-1.60;99.90;;;;;;4140777;28;20271;-50
2020/12/27 03:50:00;;;;;;;32.57;13.17;;;-1.50;99.90;;;;;;4139344;28;20337;-51
2020/12/27 03:52:01;;;;;;;30.37;13.20;;;-1.50;99.90;;;;;;4140434;28;20263;-53
2020/12/27 03:54:02;;;;;;;36.17;15.83;;;-1.50;99.90;;;;;;4140916;28;20272;-52
2020/12/27 03:56:04;;;;;;;33.60;14.57;;;-1.40;99.90;;;;;;4139856;28;20601;-51
2020/12/27 03:58:05;;;;;;;32.03;13.90;;;-1.30;99.90;;;;;;4140679;28;20267;-53
2020/12/27 04:00:06;;;;;;;29.40;14.27;;;-1.30;99.90;;;;;;4139505;28;20303;-50
2020/12/27 04:02:07;;;;;;;31.27;14.13;;;-1.30;99.90;;;;;;4140965;28;20259;-44
2020/12/27 04:04:08;;;;;;;27.07;13.40;;;-1.20;99.90;;;;;;4139591;28;20333;-49
2020/12/27 04:06:09;;;;;;;30.33;13.67;;;-1.20;99.90;;;;;;4140187;28;20267;-50
2020/12/27 04:08:10;;;;;;;25.97;13.10;;;-1.20;99.90;;;;;;4139815;28;20255;-54
2020/12/27 04:10:12;;;;;;;31.10;14.10;;;-1.20;99.90;;;;;;4139919;28;20322;-48
2020/12/27 04:12:13;;;;;;;30.20;13.57;;;-1.20;99.90;;;;;;4139275;28;20703;-54
2020/12/27 04:14:15;;;;;;;34.63;14.70;;;-1.20;99.90;;;;;;4141014;28;20267;-49
2020/12/27 04:16:16;;;;;;;29.33;14.47;;;-1.20;99.90;;;;;;4139998;28;21299;-49
2020/12/27 04:18:17;;;;;;;27.90;12.87;;;-1.20;99.90;;;;;;4140350;28;20271;-45
2020/12/27 04:20:18;;;;;;;28.10;13.67;;;-1.20;99.90;;;;;;4139682;28;20295;-48
2020/12/27 04:22:19;;;;;;;28.53;13.67;;;-1.20;99.90;;;;;;4140299;28;20660;-47
2020/12/27 04:24:20;;;;;;;27.97;13.23;;;-1.20;99.90;;;;;;4139380;28;20264;-45
2020/12/27 04:26:22;;;;;;;28.53;11.47;;;-1.20;99.90;;;;;;4139361;28;20263;-47
2020/12/27 04:28:23;;;;;;;27.77;12.70;;;-1.20;99.90;;;;;;4140216;28;20329;-50
2020/12/27 04:30:24;;;;;;;24.47;12.27;;;-1.30;99.90;;;;;;4139413;28;20749;-53
2020/12/27 04:32:25;;;;;;;26.20;11.20;;;-1.20;99.90;;;;;;4140978;28;20256;-54
2020/12/27 04:34:27;;;;;;;24.90;11.87;;;-1.20;99.90;;;;;;4139050;28;20291;-51
2020/12/27 04:36:28;;;;;;;25.30;11.53;;;-1.30;99.90;;;;;;4140887;28;20389;-48
2020/12/27 04:38:29;;;;;;;21.63;9.87;;;-1.20;99.90;;;;;;4139143;28;20326;-48
2020/12/27 04:40:30;;;;;;;23.77;11.53;;;-1.20;99.90;;;;;;4140395;28;20739;-41
2020/12/27 04:42:31;;;;;;;22.83;11.33;;;-1.20;99.90;;;;;;4139551;28;20275;-49
2020/12/27 04:44:33;;;;;;;27.07;12.00;;;-1.20;99.90;;;;;;4140750;28;20291;-47
2020/12/27 04:46:35;;;;;;;28.67;12.80;;;-1.30;99.90;;;;;;4139549;28;20277;-44
2020/12/27 04:48:38;;;;;;;30.37;13.93;;;-1.30;99.90;;;;;;4140697;28;20322;-42
2020/12/27 04:50:40;;;;;;;32.00;14.23;;;-1.30;99.90;;;;;;4139918;28;20325;-43
2020/12/27 04:52:41;;;;;;;29.50;14.00;;;-1.20;99.90;;;;;;4141501;28;20345;-44
2020/12/27 04:54:43;;;;;;;31.37;12.90;;;-1.20;99.90;;;;;;4142504;28;20267;-43
2020/12/27 04:56:48;;;;;;;29.27;13.57;;;-1.20;99.90;;;;;;4142660;28;20259;-42
2020/12/27 04:58:49;;;;;;;27.77;13.60;;;-1.20;99.90;;;;;;4143298;28;20822;-46
2020/12/27 05:00:50;;;;;;;30.50;13.30;;;-1.10;99.90;;;;;;4141654;28;20790;-54
2020/12/27 05:02:51;;;;;;;29.20;12.80;;;-1.10;99.90;;;;;;4142527;28;20276;-46
2020/12/27 05:04:52;;;;;;;32.67;13.47;;;-1.10;99.90;;;;;;4141854;28;20267;-47
2020/12/27 05:06:57;;;;;;;27.97;13.37;;;-1.20;99.90;;;;;;4143218;28;20755;-50
2020/12/27 05:08:59;;;;;;;29.33;14.03;;;-1.20;99.90;;;;;;4124802;28;20346;-52
2020/12/27 05:11:02;;;;;;;29.87;13.97;;;-1.20;99.90;;;;;;4142515;28;20275;-47
2020/12/27 05:13:03;;;;;;;32.63;14.47;;;-1.10;99.90;;;;;;4142076;28;20769;-46
2020/12/27 05:15:06;;;;;;;31.70;13.13;;;-1.10;99.90;;;;;;4142990;28;20347;-44
2020/12/27 05:17:07;;;;;;;31.50;13.47;;;-1.10;99.90;;;;;;4142617;28;20670;-47
2020/12/27 05:19:08;;;;;;;28.53;12.60;;;-1.10;99.90;;;;;;4143448;28;20759;-49
2020/12/27 05:21:10;;;;;;;22.77;11.37;;;-1.10;99.90;;;;;;4141579;28;20287;-49
2020/12/27 05:23:11;;;;;;;25.93;11.73;;;-1.10;99.90;;;;;;4143723;28;20333;-42
2020/12/27 05:25:13;;;;;;;24.60;11.97;;;-1.10;99.90;;;;;;4141243;28;20287;-45
2020/12/27 05:27:16;;;;;;;25.03;11.10;;;-1.10;99.90;;;;;;4143315;28;20349;-49
2020/12/27 05:29:35;;;;;;;20.20;9.57;;;-1.10;99.90;;;;;;4141179;28;20333;-45
2020/12/27 05:31:38;;;;;;;20.13;9.27;;;-1.10;99.90;;;;;;4142483;28;20330;-48
2020/12/27 05:33:42;;;;;;;21.13;9.23;;;-1.10;99.90;;;;;;4140860;28;20276;-52
2020/12/27 05:35:44;;;;;;;22.07;9.13;;;-1.10;99.90;;;;;;4142579;28;20280;-54
2020/12/27 05:37:48;;;;;;;20.60;9.90;;;-1.10;99.90;;;;;;4141768;28;20275;-52
2020/12/27 05:39:49;;;;;;;21.00;8.97;;;-1.10;99.90;;;;;;4140735;28;20303;-46
2020/12/27 05:41:50;;;;;;;20.10;9.73;;;-1.10;99.90;;;;;;4142126;28;20268;-48
2020/12/27 05:44:03;;;;;;;20.60;9.60;;;-1.10;99.90;;;;;;4141508;28;20702;-54
2020/12/27 05:46:05;;;;;;;19.77;9.50;;;-1.10;99.90;;;;;;4142914;28;20333;-51
2020/12/27 05:48:07;;;;;;;25.90;10.80;;;-1.10;99.90;;;;;;4141422;28;20279;-56
2020/12/27 05:50:14;;;;;;;22.80;9.57;;;-1.10;99.90;;;;;;4142759;28;20290;-49
2020/12/27 05:52:17;;;;;;;21.97;10.10;;;-1.10;99.90;;;;;;4140971;28;20272;-54
2020/12/27 05:54:43;;;;;;;19.57;8.77;;;-1.00;99.90;;;;;;4141812;28;21236;-54
2020/12/27 05:56:53;;;;;;;20.30;8.77;;;-1.00;99.90;;;;;;4141073;28;20329;-48
2020/12/27 05:58:58;;;;;;;17.23;8.63;;;-1.00;99.90;;;;;;4142932;28;20353;-46
2020/12/27 06:00:59;;;;;;;21.97;9.77;;;-1.00;99.90;;;;;;4141376;28;20111;-43
2020/12/27 06:03:01;;;;;;;22.13;10.57;;;-0.90;99.90;;;;;;4143174;28;20751;-49
2020/12/27 06:05:15;;;;;;;23.37;10.20;;;-0.90;99.90;;;;;;4140907;28;20819;-45
2020/12/27 06:07:37;;;;;;;20.80;9.37;;;-0.90;99.90;;;;;;4142485;28;20287;-47
2020/12/27 06:10:08;;;;;;;23.67;11.20;;;-0.90;99.90;;;;;;4140509;28;20268;-53
2020/12/27 06:12:13;;;;;;;25.97;10.60;;;-0.90;99.90;;;;;;4142037;28;20369;-44
2020/12/27 06:14:17;;;;;;;24.17;9.63;;;-0.90;99.90;;;;;;4142367;28;20271;-46
2020/12/27 06:16:38;;;;;;;22.70;10.43;;;-0.90;99.90;;;;;;4142579;28;20325;-53
2020/12/27 06:18:44;;;;;;;21.67;10.57;;;-0.90;99.90;;;;;;4141635;28;20620;-55
2020/12/27 06:20:45;;;;;;;30.50;11.77;;;-0.90;99.90;;;;;;4141139;28;20300;-45
2020/12/27 06:22:51;;;;;;;23.10;10.40;;;-0.80;99.90;;;;;;4141826;28;20338;-43
2020/12/27 06:24:55;;;;;;;23.77;11.43;;;-0.80;99.90;;;;;;4141686;28;20279;-52
2020/12/27 06:26:58;;;;;;;25.77;11.37;;;-0.80;99.90;;;;;;4140852;28;20267;-51
2020/12/27 06:28:59;;;;;;;26.20;11.30;;;-0.80;99.90;;;;;;4141704;28;20268;-46
2020/12/27 06:31:10;;;;;;;28.80;11.83;;;-0.80;99.90;;;;;;4141173;28;20263;-45
2020/12/27 06:33:21;;;;;;;;;;;-0.80;99.90;;;;;;4143048;28;20268;-50
2020/12/27 06:35:32;;;;;;;;;;;-0.80;99.90;;;;;;4141349;28;19913;-47
2020/12/27 06:37:45;;;;;;;21.47;9.93;;;-0.80;99.90;;;;;;4142363;28;19909;-44
2020/12/27 06:39:46;;;;;;;22.67;10.30;;;-0.80;99.90;;;;;;4141015;28;20810;-53
2020/12/27 06:42:13;;;;;;;23.57;10.70;;;-0.80;99.90;;;;;;4142394;28;20267;-54
2020/12/27 06:44:38;;;;;;;28.13;10.77;;;-0.80;99.90;;;;;;4140623;28;20325;-52
2020/12/27 06:46:46;;;;;;;29.27;11.50;;;-0.80;99.90;;;;;;4141657;28;20272;-51
2020/12/27 06:48:47;;;;;;;25.67;11.67;;;-0.80;99.90;;;;;;4140996;28;20267;-54
2020/12/27 06:50:48;;;;;;;25.77;10.67;;;-0.80;99.90;;;;;;4141841;28;20283;-54
2020/12/27 06:52:50;;;;;;;27.00;12.27;;;-0.70;99.90;;;;;;4140730;28;20267;-53
2020/12/27 06:54:53;;;;;;;26.27;10.73;;;-0.70;99.90;;;;;;4141688;28;20305;-42
2020/12/27 06:56:56;;;;;;;27.97;11.30;;;-0.60;99.90;;;;;;4139840;28;20744;-50
2020/12/27 06:59:01;;;;;;;23.73;11.10;;;-0.50;99.90;;;;;;4141146;28;21075;-47
2020/12/27 07:01:13;;;;;;;27.40;10.43;;;-0.50;99.90;;;;;;4140017;28;20345;-54
2020/12/27 07:03:22;;;;;;;22.20;10.03;;;-0.40;99.90;;;;;;4141987;28;20279;-46
2020/12/27 07:05:28;;;;;;;24.73;11.93;;;-0.40;99.90;;;;;;4139572;28;20763;-46
2020/12/27 07:07:47;;;;;;;23.77;10.63;;;-0.40;99.90;;;;;;4140417;28;20342;-47
2020/12/27 07:09:50;;;;;;;26.03;10.90;;;-0.30;99.90;;;;;;4139708;28;20726;-53
2020/12/27 07:12:09;;;;;;;23.37;10.60;;;-0.30;99.90;;;;;;4141339;28;20275;-51
2020/12/27 07:14:12;;;;;;;23.70;9.60;;;-0.30;99.90;;;;;;4140108;28;20330;-49
2020/12/27 07:16:17;;;;;;;25.13;10.93;;;-0.20;99.90;;;;;;4139656;28;20349;-57
2020/12/27 07:18:28;;;;;;;22.70;10.60;;;-0.20;99.90;;;;;;4140151;28;20324;-43
2020/12/27 07:20:30;;;;;;;;;;;-0.20;99.90;;;;;;4124806;28;20299;-55
2020/12/27 07:22:32;;;;;;;25.80;10.30;;;-0.20;99.90;;;;;;4139751;28;19905;-52
2020/12/27 07:24:35;;;;;;;31.47;13.07;;;-0.10;99.90;;;;;;4141155;28;20276;-50
2020/12/27 07:26:43;;;;;;;20.80;11.73;;;-0.10;99.90;;;;;;4140273;28;20789;-55
2020/12/27 07:28:44;;;;;;;25.93;12.13;;;-0.10;99.90;;;;;;4140775;28;20276;-52
2020/12/27 07:30:47;;;;;;;23.93;11.10;;;0.00;99.90;;;;;;4139719;28;20326;-52
2020/12/27 07:32:49;;;;;;;24.97;11.53;;;0.00;99.90;;;;;;4140515;28;20275;-52
2020/12/27 07:34:52;;;;;;;25.93;11.40;;;0.00;99.90;;;;;;4139661;28;20764;-50
2020/12/27 07:37:01;;;;;;;23.77;11.60;;;0.00;99.90;;;;;;4140793;28;20271;-48
2020/12/27 07:39:06;;;;;;;24.37;11.67;;;0.00;99.90;;;;;;4139465;28;20275;-51
2020/12/27 07:41:08;;;;;;;25.07;11.43;;;0.00;99.90;;;;;;4140583;28;20287;-47
2020/12/27 07:43:10;;;;;;;25.80;12.37;;;0.00;99.90;;;;;;4139763;28;20279;-54
2020/12/27 07:45:13;;;;;;;25.03;11.03;;;0.10;99.90;;;;;;4140612;28;20310;-56
2020/12/27 07:47:14;;;;;;;27.63;13.03;;;0.10;99.90;;;;;;4140712;28;20344;-45
2020/12/27 07:49:15;;;;;;;29.67;13.13;;;0.10;99.90;;;;;;4139343;28;20350;-50
2020/12/27 07:51:19;;;;;;;29.57;14.03;;;0.20;99.90;;;;;;4140037;28;20314;-52
2020/12/27 07:53:20;;;;;;;28.87;12.80;;;0.20;99.90;;;;;;4140289;28;20322;-48
2020/12/27 07:55:27;;;;;;;27.03;12.77;;;0.20;99.90;;;;;;4140029;28;20591;-47
2020/12/27 07:57:28;;;;;;;24.97;11.87;;;0.30;99.90;;;;;;4139106;28;20822;-43
2020/12/27 07:59:30;;;;;;;29.43;13.77;;;0.30;99.90;;;;;;4140490;28;20276;-52
2020/12/27 08:01:35;;;;;;;29.77;12.90;;;0.30;99.90;;;;;;4139005;28;20307;-48
2020/12/27 08:03:36;;;;;;;29.83;13.27;;;0.30;99.90;;;;;;4141316;28;20652;-54
2020/12/27 08:05:38;;;;;;;27.43;12.87;;;0.40;99.90;;;;;;4139959;28;20271;-50
2020/12/27 08:07:40;;;;;;;28.00;12.30;;;0.40;99.90;;;;;;4141479;28;20287;-46
2020/12/27 08:09:41;;;;;;;24.90;11.27;;;0.50;99.90;;;;;;4140203;28;20825;-55
2020/12/27 08:11:43;;;;;;;24.50;11.70;;;0.50;99.90;;;;;;4140453;28;20283;-52
2020/12/27 08:13:53;;;;;;;27.23;11.20;;;0.60;99.90;;;;;;4139276;28;20751;-56
2020/12/27 08:15:54;;;;;;;29.90;13.80;;;0.50;99.90;;;;;;4141527;28;20291;-48
2020/12/27 08:18:01;;;;;;;28.67;12.67;;;0.60;99.90;;;;;;4139256;28;20037;-54
2020/12/27 08:20:03;;;;;;;31.10;11.97;;;0.60;99.90;;;;;;4140613;28;20264;-50
2020/12/27 08:22:04;;;;;;;28.43;13.03;;;0.60;99.90;;;;;;4122094;28;20287;-53
2020/12/27 08:24:10;;;;;;;32.13;14.30;;;0.70;99.90;;;;;;4139321;28;20283;-47
2020/12/27 08:26:11;;;;;;;30.80;12.87;;;0.70;99.90;;;;;;4140098;28;20267;-43
2020/12/27 08:28:15;;;;;;;28.13;13.17;;;0.70;99.90;;;;;;4140958;28;20679;-56
2020/12/27 08:30:17;;;;;;;29.57;13.73;;;0.80;99.90;;;;;;4143135;28;20338;-49
2020/12/27 08:32:18;;;;;;;30.40;13.33;;;0.80;99.90;;;;;;4142395;28;20336;-52
2020/12/27 08:34:25;;;;;;;32.77;14.33;;;0.90;99.90;;;;;;4143621;28;20337;-52
2020/12/27 08:36:27;;;;;;;33.87;12.47;;;0.90;99.90;;;;;;4124874;28;20284;-54
2020/12/27 08:38:47;;;;;;;29.37;13.23;;;1.00;99.90;;;;;;4143604;28;20341;-48
2020/12/27 08:41:06;;;;;;;26.58;12.55;;;1.00;99.90;;;;;;4142292;28;20298;-51
2020/12/27 08:43:22;;;;;;;35.37;14.57;;;1.10;99.90;;;;;;4143044;28;20100;-52
2020/12/27 08:45:25;;;;;;;31.77;12.97;;;1.20;99.90;;;;;;4142878;28;20321;-46
2020/12/27 08:47:33;;;;;;;29.33;13.47;;;1.20;99.90;;;;;;4143246;28;20275;-45
2020/12/27 08:49:37;;;;;;;32.33;15.13;;;1.20;99.90;;;;;;4141513;28;20329;-44
2020/12/27 08:51:42;;;;;;;31.23;13.53;;;1.20;99.90;;;;;;4143266;28;20345;-52
2020/12/27 08:53:44;;;;;;;29.83;12.97;;;1.20;99.90;;;;;;4142246;28;20279;-55
2020/12/27 08:55:46;;;;;;;31.10;15.27;;;1.20;99.90;;;;;;4143647;28;20267;-49
2020/12/27 08:57:47;;;;;;;34.60;14.90;;;1.30;99.90;;;;;;4142529;28;20275;-50
2020/12/27 09:00:09;;;;;;;30.20;13.43;;;1.40;99.90;;;;;;4142904;28;20397;-50
2020/12/27 09:02:10;;;;;;;29.37;12.90;;;1.50;99.90;;;;;;4124451;28;20292;-45
2020/12/27 09:04:21;;;;;;;26.73;12.37;;;1.60;99.90;;;;;;4142339;28;20279;-45
2020/12/27 09:06:22;;;;;;;24.10;12.43;;;1.70;99.90;;;;;;4141826;28;20337;-45
2020/12/27 09:08:23;;;;;;;25.73;12.10;;;1.80;99.90;;;;;;4143376;28;20095;-45
2020/12/27 09:10:30;;;;;;;27.40;12.27;;;1.90;99.90;;;;;;4141881;28;20259;-47
2020/12/27 09:12:31;;;;;;;31.50;14.70;;;1.90;99.90;;;;;;4142179;28;20283;-44
2020/12/27 09:14:34;;;;;;;36.77;18.67;;;2.00;99.90;;;;;;4141464;28;20263;-56
2020/12/27 09:16:39;;;;;;;29.43;15.47;;;2.00;99.90;;;;;;4143752;28;20267;-55
2020/12/27 09:18:42;;;;;;;37.23;20.00;;;2.10;99.90;;;;;;4142015;28;20314;-51
2020/12/27 09:20:45;;;;;;;45.53;23.60;;;2.10;99.90;;;;;;4142676;28;20775;-57
2020/12/27 09:22:46;;;;;;;45.47;22.80;;;2.10;99.90;;;;;;4142187;28;20280;-53
2020/12/27 09:25:06;;;;;;;49.17;24.17;;;2.10;99.90;;;;;;4142514;28;20275;-52
2020/12/27 09:27:09;;;;;;;41.10;19.60;;;2.10;99.90;;;;;;4141928;28;20268;-53
2020/12/27 09:29:18;;;;;;;24.00;12.10;;;2.10;99.90;;;;;;4142094;28;20034;-49
2020/12/27 09:31:22;;;;;;;24.07;11.00;;;2.20;99.90;;;;;;4142247;28;20272;-53
2020/12/27 09:33:23;;;;;;;25.73;11.40;;;2.20;99.90;;;;;;4142452;28;20255;-50
2020/12/27 09:35:25;;;;;;;22.97;10.73;;;2.30;99.90;;;;;;4141921;28;20728;-48
2020/12/27 09:37:32;;;;;;;24.40;10.87;;;2.30;99.90;;;;;;4142274;28;20275;-47
2020/12/27 09:39:33;;;;;;;20.70;10.00;;;2.30;99.90;;;;;;4142146;28;20318;-48
2020/12/27 09:41:37;;;;;;;23.83;10.97;;;2.40;99.90;;;;;;4141552;28;20303;-52
2020/12/27 09:43:54;;;;;;;22.57;10.60;;;2.30;99.90;;;;;;4142996;28;20326;-52
2020/12/27 09:45:55;;;;;;;26.17;13.73;;;2.30;99.90;;;;;;4141840;28;20271;-52
2020/12/27 09:48:02;;;;;;;27.40;13.73;;;2.40;99.90;;;;;;4143395;28;20251;-51
2020/12/27 09:50:08;;;;;;;26.03;12.93;;;2.30;99.90;;;;;;4141107;28;20260;-53
2020/12/27 09:52:15;;;;;;;21.83;11.60;;;2.40;99.90;;;;;;4142321;28;20325;-52
2020/12/27 09:54:16;;;;;;;28.33;16.37;;;2.40;99.90;;;;;;4142005;28;20259;-49
2020/12/27 09:56:17;;;;;;;29.40;16.67;;;2.30;99.90;;;;;;4141905;28;20373;-46
2020/12/27 09:58:18;;;;;;;24.27;12.17;;;2.30;99.90;;;;;;4123084;28;20692;-45
2020/12/27 10:00:19;;;;;;;19.97;9.73;;;2.40;99.90;;;;;;4141859;28;20727;-52
2020/12/27 10:02:24;;;;;;;23.70;10.73;;;2.30;99.90;;;;;;4141221;28;20748;-56
2020/12/27 10:04:25;;;;;;;17.37;9.37;;;2.30;99.90;;;;;;4141922;28;20350;-51
2020/12/27 10:06:26;;;;;;;20.87;9.77;;;2.40;99.90;;;;;;4141649;28;20326;-52
2020/12/27 10:08:27;;;;;;;26.77;14.53;;;2.40;99.90;;;;;;4142138;28;20263;-53
2020/12/27 10:10:28;;;;;;;20.03;10.20;;;2.40;99.90;;;;;;4141391;28;20313;-50
2020/12/27 10:12:30;;;;;;;20.87;10.17;;;2.40;99.90;;;;;;4141187;28;20334;-47
2020/12/27 10:14:32;;;;;;;19.80;10.37;;;2.40;99.90;;;;;;4140779;28;20271;-48
2020/12/27 10:16:33;;;;;;;21.17;9.43;;;2.40;99.90;;;;;;4141500;28;20280;-52
2020/12/27 10:18:34;;;;;;;18.40;10.00;;;2.30;99.90;;;;;;4141653;28;20272;-48
2020/12/27 10:20:35;;;;;;;20.17;9.40;;;2.40;99.90;;;;;;4140824;28;20263;-50
2020/12/27 10:22:37;;;;;;;18.83;9.17;;;2.40;99.90;;;;;;4141815;28;21543;-53
2020/12/27 10:24:40;;;;;;;15.97;8.27;;;2.40;99.90;;;;;;4140985;28;20263;-45
2020/12/27 10:26:42;;;;;;;24.30;9.37;;;2.40;99.90;;;;;;4142632;28;20309;-45
2020/12/27 10:28:43;;;;;;;21.37;8.53;;;2.40;99.90;;;;;;4140105;28;20832;-47
2020/12/27 10:30:44;;;;;;;20.57;11.20;;;2.50;99.90;;;;;;4142231;28;20832;-56